Time;durP1;ratioP1;P1;durP2;ratioP2;P2;SDS_P1;SDS_P2;PMS_P1;PMS_P2;Temp;Humidity;BMP_temperature;BMP_pressure;BME280_temperature;BME280_humidity;BME280_pressure;Samples;Min_cycle;Max_cycle;Signal;HPM_P1;HPM_P2
2021/11/16 00:02:01;;;;;;;28.98;16.95;;;;;;;;;;5076771;28;20036;-79
2021/11/16 00:04:27;;;;;;;29.38;16.00;;;;;;;;;;5092972;28;20058;-78
2021/11/16 00:06:54;;;;;;;25.38;15.77;;;;;;;;;;5087242;28;20021;-79
2021/11/16 00:09:20;;;;;;;27.30;14.68;;;;;;;;;;5082901;28;20028;-79
2021/11/16 00:11:47;;;;;;;23.92;14.98;;;;;;;;;;5039446;28;20122;-79
2021/11/16 00:14:13;;;;;;;27.42;15.85;;;;;;;;;;5095838;28;20443;-79
2021/11/16 00:16:41;;;;;;;28.30;15.45;;;;;;;;;;5096985;28;20377;-79
2021/11/16 00:19:09;;;;;;;25.65;15.40;;;;;;;;;;5097172;28;20026;-78
2021/11/16 00:21:35;;;;;;;28.58;16.27;;;;;;;;;;5078001;28;20055;-79
2021/11/16 00:24:09;;;;;;;28.00;15.95;;;;;;;;;;5077465;28;20032;-79
2021/11/16 00:26:35;;;;;;;25.88;15.57;;;;;;;;;;5076873;28;20051;-77
2021/11/16 00:29:01;;;;;;;26.52;16.33;;;;;;;;;;5088150;28;20036;-79
2021/11/16 00:31:31;;;;;;;25.77;15.63;;;;;;;;;;5059208;28;20040;-78
2021/11/16 00:33:57;;;;;;;25.75;15.90;;;;;;;;;;5055470;28;20051;-79
2021/11/16 00:36:23;;;;;;;27.15;15.70;;;;;;;;;;5060013;28;20450;-79
2021/11/16 00:38:49;;;;;;;27.13;15.85;;;;;;;;;;5089458;28;20024;-79
2021/11/16 00:41:15;;;;;;;28.50;16.55;;;;;;;;;;5058161;28;20031;-79
2021/11/16 00:43:41;;;;;;;28.88;16.42;;;;;;;;;;5055180;28;20060;-79
2021/11/16 00:46:07;;;;;;;28.88;15.90;;;;;;;;;;5053985;28;20029;-80
2021/11/16 00:48:33;;;;;;;28.77;16.55;;;;;;;;;;5046737;28;20115;-79
2021/11/16 00:51:01;;;;;;;32.20;17.40;;;;;;;;;;5096161;28;20261;-80
2021/11/16 00:53:29;;;;;;;28.70;17.83;;;;;;;;;;5095552;28;20028;-79
2021/11/16 00:55:55;;;;;;;29.08;16.60;;;;;;;;;;5057196;28;20025;-80
2021/11/16 00:58:21;;;;;;;29.33;17.23;;;;;;;;;;5079023;28;20048;-78
2021/11/16 01:00:48;;;;;;;29.17;16.60;;;;;;;;;;5076720;28;20025;-80
2021/11/16 01:03:14;;;;;;;26.38;16.83;;;;;;;;;;5085078;28;20086;-78
2021/11/16 01:05:41;;;;;;;28.77;16.00;;;;;;;;;;5085954;28;20029;-77
2021/11/16 01:08:08;;;;;;;31.73;17.40;;;;;;;;;;5085799;28;20032;-80
2021/11/16 01:10:34;;;;;;;31.70;17.63;;;;;;;;;;5073460;28;20032;-78
2021/11/16 01:13:02;;;;;;;27.83;16.23;;;;;;;;;;5075315;28;20081;-79
2021/11/16 01:15:29;;;;;;;25.85;15.82;;;;;;;;;;5074430;28;20033;-79
2021/11/16 01:17:55;;;;;;;26.52;17.20;;;;;;;;;;5077793;28;20059;-78
2021/11/16 01:20:22;;;;;;;27.23;16.83;;;;;;;;;;5074376;28;20036;-79
2021/11/16 01:22:50;;;;;;;29.58;16.95;;;;;;;;;;5075252;28;20020;-79
2021/11/16 01:25:16;;;;;;;24.48;15.40;;;;;;;;;;5074874;28;20025;-79
2021/11/16 01:27:42;;;;;;;30.55;16.17;;;;;;;;;;5075490;28;20100;-79
2021/11/16 01:30:13;;;;;;;25.92;15.40;;;;;;;;;;5074885;28;20055;-80
2021/11/16 01:32:43;;;;;;;30.70;16.88;;;;;;;;;;5075487;28;20090;-78
2021/11/16 01:35:09;;;;;;;27.23;16.30;;;;;;;;;;5074587;28;20562;-78
2021/11/16 01:37:36;;;;;;;30.08;17.50;;;;;;;;;;5075300;28;20079;-79
2021/11/16 01:40:03;;;;;;;29.73;16.40;;;;;;;;;;5075282;28;20024;-79
2021/11/16 01:42:29;;;;;;;29.90;17.15;;;;;;;;;;5057471;28;20039;-80
2021/11/16 01:44:56;;;;;;;31.48;16.88;;;;;;;;;;5075126;28;20044;-80
2021/11/16 01:47:22;;;;;;;25.80;15.88;;;;;;;;;;5076040;28;20111;-79
2021/11/16 01:49:48;;;;;;;29.63;17.35;;;;;;;;;;5073729;28;20036;-80
2021/11/16 01:52:14;;;;;;;28.52;15.60;;;;;;;;;;5075187;28;20027;-80
2021/11/16 01:54:40;;;;;;;32.28;16.60;;;;;;;;;;5074942;28;20029;-80
2021/11/16 01:57:07;;;;;;;32.22;17.95;;;;;;;;;;5075682;28;20028;-79
2021/11/16 01:59:33;;;;;;;26.73;15.93;;;;;;;;;;5088350;28;20024;-78
2021/11/16 02:02:00;;;;;;;29.95;17.02;;;;;;;;;;5076919;28;20083;-80
2021/11/16 02:04:26;;;;;;;30.42;16.60;;;;;;;;;;5078851;28;20021;-80
2021/11/16 02:06:52;;;;;;;30.13;17.38;;;;;;;;;;5080018;28;20441;-80
2021/11/16 02:09:18;;;;;;;28.25;17.23;;;;;;;;;;5069024;28;20042;-80
2021/11/16 02:11:45;;;;;;;31.63;17.90;;;;;;;;;;5099728;28;20024;-80
2021/11/16 02:14:12;;;;;;;28.52;16.85;;;;;;;;;;5099537;28;20032;-78
2021/11/16 02:16:38;;;;;;;33.35;17.77;;;;;;;;;;5099484;28;20420;-79
2021/11/16 02:19:05;;;;;;;30.15;17.00;;;;;;;;;;5095858;28;20036;-79
2021/11/16 02:21:31;;;;;;;33.35;16.80;;;;;;;;;;5099675;28;20059;-79
2021/11/16 02:23:58;;;;;;;31.90;17.77;;;;;;;;;;5099877;28;20497;-80
2021/11/16 02:26:24;;;;;;;29.58;16.60;;;;;;;;;;5083316;28;20047;-79
2021/11/16 02:28:50;;;;;;;32.22;16.48;;;;;;;;;;5091236;28;20045;-79
2021/11/16 02:31:17;;;;;;;26.88;16.20;;;;;;;;;;5099377;28;20039;-78
2021/11/16 02:33:44;;;;;;;30.45;18.33;;;;;;;;;;5104924;28;20114;-80
2021/11/16 02:36:11;;;;;;;32.70;18.20;;;;;;;;;;5099364;28;20025;-80
2021/11/16 02:38:37;;;;;;;31.15;17.80;;;;;;;;;;5095312;28;20070;-78
2021/11/16 02:41:04;;;;;;;30.98;17.98;;;;;;;;;;5081635;28;20024;-80
2021/11/16 02:43:30;;;;;;;29.63;17.95;;;;;;;;;;5079627;28;20382;-80
2021/11/16 02:45:56;;;;;;;28.60;16.27;;;;;;;;;;5078259;28;20021;-80
2021/11/16 02:48:22;;;;;;;26.35;16.40;;;;;;;;;;5077581;28;20413;-80
2021/11/16 02:50:50;;;;;;;28.27;17.08;;;;;;;;;;5058936;28;20111;-80
2021/11/16 02:53:17;;;;;;;29.88;17.15;;;;;;;;;;5075988;28;20150;-80
2021/11/16 02:55:44;;;;;;;31.55;16.77;;;;;;;;;;5077920;28;20656;-80
2021/11/16 02:58:11;;;;;;;28.83;17.05;;;;;;;;;;5092814;28;20392;-79
2021/11/16 03:00:38;;;;;;;28.98;16.35;;;;;;;;;;5088025;28;20024;-78
2021/11/16 03:03:04;;;;;;;29.05;16.23;;;;;;;;;;5098802;28;20422;-80
2021/11/16 03:05:33;;;;;;;29.38;16.90;;;;;;;;;;5097621;28;20036;-79
2021/11/16 03:08:00;;;;;;;27.55;16.20;;;;;;;;;;5095648;28;20434;-79
2021/11/16 03:10:29;;;;;;;28.38;16.23;;;;;;;;;;5061006;28;20060;-79
2021/11/16 03:12:55;;;;;;;28.45;16.70;;;;;;;;;;5091381;28;20054;-78
2021/11/16 03:15:21;;;;;;;26.08;16.08;;;;;;;;;;5111274;28;20064;-78
2021/11/16 03:17:48;;;;;;;27.92;16.13;;;;;;;;;;5114036;28;20031;-78
2021/11/16 03:20:15;;;;;;;26.90;15.55;;;;;;;;;;5093036;28;20036;-80
2021/11/16 03:22:45;;;;;;;29.70;17.33;;;;;;;;;;5079763;28;20054;-79
2021/11/16 03:25:11;;;;;;;32.92;17.50;;;;;;;;;;5087493;28;20020;-80
2021/11/16 03:27:40;;;;;;;33.28;18.38;;;;;;;;;;5078786;28;20025;-81
2021/11/16 03:30:06;;;;;;;28.33;17.73;;;;;;;;;;5060279;28;20029;-81
2021/11/16 03:32:35;;;;;;;32.33;18.58;;;;;;;;;;5068726;28;20630;-81
2021/11/16 03:35:01;;;;;;;30.40;17.05;;;;;;;;;;5097583;28;20020;-79
2021/11/16 03:37:31;;;;;;;29.60;16.92;;;;;;;;;;5098669;28;20099;-81
2021/11/16 03:39:57;;;;;;;30.80;18.35;;;;;;;;;;5096293;28;20032;-78
2021/11/16 03:42:23;;;;;;;35.42;20.20;;;;;;;;;;5079786;28;20443;-79
2021/11/16 03:44:49;;;;;;;31.48;18.77;;;;;;;;;;5098113;28;20054;-77
2021/11/16 03:47:17;;;;;;;31.10;17.77;;;;;;;;;;5102061;28;20052;-77
2021/11/16 03:49:44;;;;;;;32.70;18.27;;;;;;;;;;5083356;28;20044;-78
2021/11/16 03:52:10;;;;;;;34.25;19.00;;;;;;;;;;5079634;28;20032;-77
2021/11/16 03:54:36;;;;;;;31.50;17.70;;;;;;;;;;5092446;28;20044;-79
2021/11/16 03:57:02;;;;;;;32.90;18.80;;;;;;;;;;5081062;28;20024;-80
2021/11/16 03:59:30;;;;;;;32.40;19.25;;;;;;;;;;5069698;28;20501;-78
2021/11/16 04:01:56;;;;;;;33.78;17.92;;;;;;;;;;5042726;28;20428;-80
2021/11/16 04:04:23;;;;;;;34.45;17.67;;;;;;;;;;5059136;28;20039;-79
2021/11/16 04:06:49;;;;;;;30.33;18.58;;;;;;;;;;5060478;28;20036;-80
2021/11/16 04:09:16;;;;;;;30.77;17.90;;;;;;;;;;5070636;28;20039;-80
2021/11/16 04:11:42;;;;;;;29.75;16.25;;;;;;;;;;5102396;28;20016;-80
2021/11/16 04:14:08;;;;;;;32.55;18.27;;;;;;;;;;5103862;28;20111;-80
2021/11/16 04:16:34;;;;;;;28.77;17.50;;;;;;;;;;5103218;28;20024;-79
2021/11/16 04:19:01;;;;;;;30.08;17.10;;;;;;;;;;5099221;28;20060;-80
2021/11/16 04:21:27;;;;;;;25.17;15.50;;;;;;;;;;5100343;28;20052;-79
2021/11/16 04:23:54;;;;;;;29.73;16.58;;;;;;;;;;5100321;28;20067;-79
2021/11/16 04:26:20;;;;;;;26.75;16.00;;;;;;;;;;5080590;28;20040;-80
2021/11/16 04:28:46;;;;;;;28.27;16.83;;;;;;;;;;5080724;28;20111;-80
2021/11/16 04:31:12;;;;;;;32.40;18.13;;;;;;;;;;5079265;28;20031;-79
2021/11/16 04:33:38;;;;;;;28.65;16.70;;;;;;;;;;5079031;28;20028;-79
2021/11/16 04:36:05;;;;;;;31.38;17.48;;;;;;;;;;5078287;28;20483;-80
2021/11/16 04:38:31;;;;;;;33.28;18.75;;;;;;;;;;5079743;28;20051;-79
2021/11/16 04:40:59;;;;;;;32.53;17.25;;;;;;;;;;5077976;28;20046;-79
2021/11/16 04:43:27;;;;;;;32.47;18.48;;;;;;;;;;5057917;28;20020;-79
2021/11/16 04:45:57;;;;;;;34.63;17.30;;;;;;;;;;5056561;28;20033;-79
2021/11/16 04:48:47;;;;;;;35.22;19.27;;;;;;;;;;5060501;28;20439;-79
2021/11/16 05:04:15;;;;;;;36.92;20.27;;;;;;;;;;5099881;28;20043;-78
2021/11/16 05:06:41;;;;;;;40.20;19.88;;;;;;;;;;5098199;28;20512;-78
2021/11/16 05:09:07;;;;;;;35.75;19.17;;;;;;;;;;5090221;28;20021;-78
2021/11/16 05:11:33;;;;;;;30.15;17.17;;;;;;;;;;5076763;28;20393;-78
2021/11/16 05:13:59;;;;;;;35.55;19.20;;;;;;;;;;5077212;28;20037;-77
2021/11/16 05:16:26;;;;;;;33.97;19.55;;;;;;;;;;5076869;28;20035;-79
2021/11/16 05:18:52;;;;;;;38.03;20.20;;;;;;;;;;5078932;28;20438;-78
2021/11/16 05:21:18;;;;;;;36.45;20.17;;;;;;;;;;5082436;28;20040;-78
2021/11/16 05:23:55;;;;;;;39.28;20.58;;;;;;;;;;5077356;28;20514;-79
2021/11/16 05:26:22;;;;;;;42.40;20.75;;;;;;;;;;5075403;28;20016;-80
2021/11/16 05:28:48;;;;;;;39.92;20.88;;;;;;;;;;5083633;28;20028;-79
2021/11/16 05:31:15;;;;;;;42.17;21.55;;;;;;;;;;5098388;28;20027;-78
2021/11/16 05:33:42;;;;;;;34.83;19.60;;;;;;;;;;5104669;28;20073;-78
2021/11/16 05:36:08;;;;;;;37.65;19.58;;;;;;;;;;5102539;28;20038;-78
2021/11/16 05:38:36;;;;;;;36.25;19.08;;;;;;;;;;5099586;28;20035;-79
2021/11/16 05:41:02;;;;;;;37.63;19.90;;;;;;;;;;5077916;28;20550;-79
2021/11/16 05:43:29;;;;;;;40.85;19.50;;;;;;;;;;5077339;28;20021;-79
2021/11/16 05:45:56;;;;;;;38.38;20.55;;;;;;;;;;5076618;28;20382;-79
2021/11/16 05:48:23;;;;;;;38.65;21.17;;;;;;;;;;5075651;28;20025;-80
2021/11/16 05:50:50;;;;;;;40.30;21.45;;;;;;;;;;5076198;28;20024;-80
2021/11/16 05:53:16;;;;;;;38.72;21.55;;;;;;;;;;5076659;28;20041;-80
2021/11/16 05:55:43;;;;;;;42.70;21.02;;;;;;;;;;5075665;28;20105;-79
2021/11/16 05:58:10;;;;;;;39.40;22.08;;;;;;;;;;5077717;28;20088;-80
2021/11/16 06:00:36;;;;;;;45.83;22.65;;;;;;;;;;5096300;28;20095;-79
2021/11/16 06:03:02;;;;;;;43.40;23.55;;;;;;;;;;5096129;28;20460;-79
2021/11/16 06:05:28;;;;;;;42.00;22.30;;;;;;;;;;5078820;28;20035;-79
2021/11/16 06:07:54;;;;;;;39.28;20.40;;;;;;;;;;5076662;28;20029;-79
2021/11/16 06:10:20;;;;;;;41.28;22.83;;;;;;;;;;5069072;28;20037;-80
2021/11/16 06:12:46;;;;;;;42.47;22.02;;;;;;;;;;5040478;28;20025;-80
2021/11/16 06:15:12;;;;;;;40.58;21.30;;;;;;;;;;5055265;28;20052;-80
2021/11/16 06:17:42;;;;;;;40.03;21.83;;;;;;;;;;5056715;28;20386;-80
2021/11/16 06:20:08;;;;;;;44.45;23.65;;;;;;;;;;5064960;28;20027;-79
2021/11/16 06:22:34;;;;;;;42.28;22.77;;;;;;;;;;5076315;28;20505;-80
2021/11/16 06:25:00;;;;;;;44.63;22.98;;;;;;;;;;5075672;28;20032;-79
2021/11/16 06:27:26;;;;;;;38.78;21.00;;;;;;;;;;5077307;28;20044;-79
2021/11/16 06:29:52;;;;;;;44.47;21.45;;;;;;;;;;5085279;28;20064;-80
2021/11/16 06:32:18;;;;;;;40.40;20.88;;;;;;;;;;5074398;28;20093;-80
2021/11/16 06:34:44;;;;;;;40.00;21.63;;;;;;;;;;5069398;28;20051;-78
2021/11/16 06:37:10;;;;;;;38.47;20.42;;;;;;;;;;5069511;28;20158;-77
2021/11/16 06:39:36;;;;;;;42.13;21.58;;;;;;;;;;5080927;28;20060;-78
2021/11/16 06:42:03;;;;;;;40.67;22.10;;;;;;;;;;5087166;28;20108;-77
2021/11/16 06:44:29;;;;;;;39.40;21.45;;;;;;;;;;5074178;28;20504;-77
2021/11/16 06:46:56;;;;;;;35.85;19.80;;;;;;;;;;5068464;28;20115;-78
2021/11/16 06:49:22;;;;;;;38.80;20.88;;;;;;;;;;5068478;28;20029;-78
2021/11/16 06:51:49;;;;;;;41.42;22.35;;;;;;;;;;5069342;28;20020;-78
2021/11/16 06:54:20;;;;;;;42.63;22.70;;;;;;;;;;5072277;28;20103;-77
2021/11/16 06:56:48;;;;;;;41.47;20.05;;;;;;;;;;5074194;28;20027;-77
2021/11/16 06:59:14;;;;;;;34.20;19.63;;;;;;;;;;5074006;28;20481;-78
2021/11/16 07:01:40;;;;;;;39.58;20.35;;;;;;;;;;5074331;28;20047;-77
2021/11/16 07:04:09;;;;;;;45.53;21.50;;;;;;;;;;5074312;28;20063;-78
2021/11/16 07:06:36;;;;;;;39.42;20.80;;;;;;;;;;5073644;28;20028;-77
2021/11/16 07:09:03;;;;;;;36.92;20.23;;;;;;;;;;5075745;28;20032;-77
2021/11/16 07:11:29;;;;;;;38.92;20.08;;;;;;;;;;5073821;28;20432;-77
2021/11/16 07:13:57;;;;;;;41.20;20.92;;;;;;;;;;5074078;28;20086;-77
2021/11/16 07:16:24;;;;;;;39.92;20.13;;;;;;;;;;5073623;28;20107;-78
2021/11/16 07:18:52;;;;;;;37.75;19.80;;;;;;;;;;5074356;28;20029;-77
2021/11/16 07:21:19;;;;;;;37.22;19.30;;;;;;;;;;5073929;28;20025;-77
2021/11/16 07:23:45;;;;;;;37.28;19.77;;;;;;;;;;5074230;28;20020;-77
2021/11/16 07:26:16;;;;;;;41.50;20.73;;;;;;;;;;5076374;28;20503;-78
2021/11/16 07:28:49;;;;;;;41.33;21.58;;;;;;;;;;5076996;28;20024;-78
2021/11/16 07:31:19;;;;;;;41.58;21.23;;;;;;;;;;5081853;28;20416;-77
2021/11/16 07:33:45;;;;;;;43.90;22.30;;;;;;;;;;5074068;28;20032;-77
2021/11/16 07:36:11;;;;;;;41.80;22.23;;;;;;;;;;5073387;28;20572;-77
2021/11/16 07:38:37;;;;;;;39.15;21.52;;;;;;;;;;5054948;28;20020;-78
2021/11/16 07:41:04;;;;;;;45.20;21.25;;;;;;;;;;5071698;28;20057;-77
2021/11/16 07:43:30;;;;;;;46.15;23.85;;;;;;;;;;5073616;28;20069;-80
2021/11/16 07:45:56;;;;;;;45.65;23.13;;;;;;;;;;5074416;28;20399;-79
2021/11/16 07:48:27;;;;;;;49.55;22.95;;;;;;;;;;5077614;28;20363;-79
2021/11/16 07:50:54;;;;;;;42.45;21.85;;;;;;;;;;5077609;28;20035;-78
2021/11/16 07:53:23;;;;;;;47.20;22.45;;;;;;;;;;5075739;28;20063;-76
2021/11/16 07:55:57;;;;;;;40.75;21.40;;;;;;;;;;5079178;28;20103;-77
2021/11/16 07:58:34;;;;;;;42.17;21.75;;;;;;;;;;5069117;28;20496;-80
2021/11/16 08:01:04;;;;;;;40.42;21.55;;;;;;;;;;5086292;28;20059;-76
2021/11/16 08:03:32;;;;;;;43.05;21.92;;;;;;;;;;5098409;28;20021;-76
2021/11/16 08:06:18;;;;;;;42.55;22.58;;;;;;;;;;5088017;28;20028;-78
2021/11/16 08:11:46;;;;;;;43.72;22.80;;;;;;;;;;5087633;28;20346;-74
2021/11/16 08:14:14;;;;;;;47.38;22.55;;;;;;;;;;5058124;28;20025;-74
2021/11/16 08:16:52;;;;;;;49.65;24.55;;;;;;;;;;5075536;28;20288;-75
2021/11/16 08:19:20;;;;;;;43.88;22.73;;;;;;;;;;5081302;28;20020;-75
2021/11/16 08:21:47;;;;;;;43.60;22.50;;;;;;;;;;5077058;28;20036;-74
2021/11/16 08:24:15;;;;;;;46.03;22.90;;;;;;;;;;5065842;28;20029;-75
2021/11/16 08:26:48;;;;;;;45.38;23.88;;;;;;;;;;5071708;28;20073;-75
2021/11/16 08:29:16;;;;;;;43.97;20.38;;;;;;;;;;5072136;28;20025;-75
2021/11/16 08:31:48;;;;;;;42.40;22.58;;;;;;;;;;5092616;28;20035;-75
2021/11/16 08:34:14;;;;;;;46.17;22.85;;;;;;;;;;5089534;28;20031;-75
2021/11/16 08:36:47;;;;;;;45.80;23.00;;;;;;;;;;5091766;28;20514;-75
2021/11/16 08:39:13;;;;;;;46.55;22.92;;;;;;;;;;5091852;28;20056;-75
2021/11/16 08:41:40;;;;;;;41.83;21.58;;;;;;;;;;5073927;28;20113;-76
2021/11/16 08:44:09;;;;;;;46.55;22.85;;;;;;;;;;5079556;28;20020;-76
2021/11/16 08:46:35;;;;;;;44.03;21.67;;;;;;;;;;5091671;28;20024;-76
2021/11/16 08:49:01;;;;;;;44.03;22.13;;;;;;;;;;5074465;28;20024;-76
2021/11/16 08:51:32;;;;;;;45.90;22.58;;;;;;;;;;5092355;28;20028;-76
2021/11/16 08:53:58;;;;;;;40.35;20.42;;;;;;;;;;5090563;28;20111;-76
2021/11/16 08:56:27;;;;;;;46.50;22.90;;;;;;;;;;5079577;28;20100;-77
2021/11/16 08:58:54;;;;;;;38.50;21.10;;;;;;;;;;5059691;28;20016;-76
2021/11/16 09:01:22;;;;;;;43.40;22.55;;;;;;;;;;5071577;28;20687;-76
2021/11/16 09:03:48;;;;;;;42.40;21.42;;;;;;;;;;5054217;28;20020;-76
2021/11/16 09:06:18;;;;;;;41.72;21.75;;;;;;;;;;5071617;28;20026;-76
2021/11/16 09:08:46;;;;;;;37.20;21.52;;;;;;;;;;5073328;28;20012;-77
2021/11/16 09:11:14;;;;;;;39.92;21.63;;;;;;;;;;5071087;28;20028;-76
2021/11/16 09:13:40;;;;;;;37.15;20.70;;;;;;;;;;5071956;28;20024;-77
2021/11/16 09:16:08;;;;;;;40.35;21.27;;;;;;;;;;5071370;28;20050;-76
2021/11/16 09:18:38;;;;;;;39.00;20.60;;;;;;;;;;5068924;28;20031;-76
2021/11/16 09:21:06;;;;;;;42.75;20.10;;;;;;;;;;5060685;28;20553;-76
2021/11/16 09:23:34;;;;;;;43.50;23.27;;;;;;;;;;5051656;28;20025;-76
2021/11/16 09:26:21;;;;;;;47.85;25.17;;;;;;;;;;5067344;28;20101;-76
2021/11/16 09:28:49;;;;;;;44.15;22.52;;;;;;;;;;5068203;28;20032;-77
2021/11/16 09:31:21;;;;;;;41.83;22.88;;;;;;;;;;5071587;28;20024;-76
2021/11/16 09:33:47;;;;;;;39.90;22.30;;;;;;;;;;5072020;28;20382;-76
2021/11/16 09:36:30;;;;;;;42.50;21.00;;;;;;;;;;5071050;28;20436;-76
2021/11/16 09:38:58;;;;;;;40.97;21.35;;;;;;;;;;5051746;28;20033;-76
2021/11/16 09:41:24;;;;;;;44.42;23.00;;;;;;;;;;5068714;28;20016;-77
2021/11/16 09:43:55;;;;;;;42.50;21.45;;;;;;;;;;5071806;28;20028;-77
2021/11/16 09:46:22;;;;;;;42.97;21.00;;;;;;;;;;5084145;28;20070;-77
2021/11/16 09:48:56;;;;;;;46.75;23.08;;;;;;;;;;5091853;28;20017;-76
2021/11/16 09:51:22;;;;;;;44.35;21.98;;;;;;;;;;5059053;28;20067;-76
2021/11/16 09:53:59;;;;;;;42.10;22.95;;;;;;;;;;5071403;28;20044;-76
2021/11/16 09:56:25;;;;;;;42.17;22.23;;;;;;;;;;5083031;28;20056;-77
2021/11/16 09:58:52;;;;;;;44.75;24.95;;;;;;;;;;5082122;28;20021;-76
2021/11/16 10:01:38;;;;;;;45.22;23.13;;;;;;;;;;5056514;28;20394;-77
2021/11/16 10:04:45;;;;;;;42.55;22.45;;;;;;;;;;5066511;28;20029;-76
2021/11/16 10:07:13;;;;;;;41.40;22.38;;;;;;;;;;5023323;28;20047;-76
2021/11/16 10:09:42;;;;;;;38.90;20.70;;;;;;;;;;5078374;28;20040;-76
2021/11/16 10:12:08;;;;;;;42.90;21.38;;;;;;;;;;5074479;28;20024;-76
2021/11/16 10:14:34;;;;;;;44.47;21.85;;;;;;;;;;5090957;28;20024;-76
2021/11/16 10:17:00;;;;;;;40.67;21.45;;;;;;;;;;5091125;28;20063;-77
2021/11/16 10:19:26;;;;;;;44.33;23.10;;;;;;;;;;5086907;28;20036;-76
2021/11/16 10:21:52;;;;;;;40.45;21.95;;;;;;;;;;5052053;28;20382;-76
2021/11/16 10:24:26;;;;;;;43.08;20.48;;;;;;;;;;5074064;28;20036;-76
2021/11/16 10:26:53;;;;;;;41.03;21.40;;;;;;;;;;5074564;28;20024;-76
2021/11/16 10:29:20;;;;;;;39.42;20.67;;;;;;;;;;5074370;28;20029;-77
2021/11/16 10:31:46;;;;;;;41.55;21.13;;;;;;;;;;5085249;28;20035;-76
2021/11/16 10:34:12;;;;;;;41.28;20.20;;;;;;;;;;5085363;28;20064;-76
2021/11/16 10:36:38;;;;;;;36.70;19.88;;;;;;;;;;5073799;28;20106;-75
2021/11/16 10:39:04;;;;;;;32.58;19.08;;;;;;;;;;5075086;28;20031;-76
2021/11/16 10:41:32;;;;;;;32.70;17.40;;;;;;;;;;5086666;28;20036;-75
2021/11/16 10:44:00;;;;;;;33.67;18.15;;;;;;;;;;5094332;28;20024;-76
2021/11/16 10:46:27;;;;;;;34.85;18.40;;;;;;;;;;5094462;28;20052;-76
2021/11/16 10:48:55;;;;;;;36.45;18.88;;;;;;;;;;5094650;28;20491;-77
2021/11/16 10:51:21;;;;;;;34.65;19.55;;;;;;;;;;5093129;28;20637;-77
2021/11/16 10:53:54;;;;;;;36.05;19.13;;;;;;;;;;5094727;28;20512;-77
2021/11/16 10:56:22;;;;;;;34.33;18.40;;;;;;;;;;5083727;28;20466;-75
2021/11/16 10:58:49;;;;;;;33.95;18.63;;;;;;;;;;5085152;28;20027;-76
2021/11/16 11:01:19;;;;;;;37.72;18.80;;;;;;;;;;5094682;28;20052;-76
2021/11/16 11:03:48;;;;;;;33.80;18.83;;;;;;;;;;5092873;28;20040;-76
2021/11/16 11:06:20;;;;;;;32.90;17.88;;;;;;;;;;5080220;28;20020;-76
2021/11/16 11:08:48;;;;;;;36.22;18.85;;;;;;;;;;5092339;28;20069;-77
2021/11/16 11:11:20;;;;;;;36.78;19.38;;;;;;;;;;5073880;28;20025;-77
2021/11/16 11:13:47;;;;;;;38.28;19.92;;;;;;;;;;5081587;28;20069;-77
2021/11/16 11:16:17;;;;;;;38.88;19.98;;;;;;;;;;5093748;28;20024;-77
2021/11/16 11:18:47;;;;;;;39.67;19.77;;;;;;;;;;5094166;28;20012;-75
2021/11/16 11:21:28;;;;;;;38.88;19.80;;;;;;;;;;5079325;28;20153;-76
2021/11/16 11:23:56;;;;;;;38.53;19.98;;;;;;;;;;5074324;28;20033;-75
2021/11/16 11:32:20;;;;;;;38.83;20.73;;;;;;;;;;5073940;28;20028;-75
2021/11/16 11:34:46;;;;;;;36.83;20.15;;;;;;;;;;5072751;28;20035;-77
2021/11/16 11:37:17;;;;;;;41.83;21.35;;;;;;;;;;5073649;28;20104;-75
2021/11/16 11:39:44;;;;;;;42.53;21.55;;;;;;;;;;5088899;28;20493;-76
2021/11/16 11:42:14;;;;;;;41.17;21.20;;;;;;;;;;5093581;28;20020;-75
2021/11/16 11:44:45;;;;;;;37.50;19.42;;;;;;;;;;5083116;28;20936;-75
2021/11/16 11:47:11;;;;;;;42.70;20.45;;;;;;;;;;5090116;28;20035;-76
2021/11/16 11:49:40;;;;;;;38.75;21.15;;;;;;;;;;5093401;28;20501;-77
2021/11/16 11:52:06;;;;;;;39.33;20.65;;;;;;;;;;5093644;28;20504;-76
2021/11/16 11:54:32;;;;;;;34.38;19.20;;;;;;;;;;5084113;28;20444;-76
2021/11/16 11:56:58;;;;;;;33.80;18.60;;;;;;;;;;5072734;28;20168;-76
2021/11/16 11:59:25;;;;;;;32.75;17.48;;;;;;;;;;5088306;28;20062;-76
2021/11/16 12:01:52;;;;;;;36.78;18.38;;;;;;;;;;5090714;28;20039;-76
2021/11/16 12:04:19;;;;;;;30.67;16.55;;;;;;;;;;5075008;28;20032;-76
2021/11/16 12:06:46;;;;;;;33.85;17.75;;;;;;;;;;5072869;28;20021;-78
2021/11/16 12:09:13;;;;;;;33.83;17.70;;;;;;;;;;5050902;28;20037;-76
2021/11/16 12:11:39;;;;;;;38.50;19.20;;;;;;;;;;5090323;28;20032;-76
2021/11/16 12:14:12;;;;;;;37.85;19.15;;;;;;;;;;5074912;28;20032;-76
2021/11/16 12:17:00;;;;;;;35.55;19.60;;;;;;;;;;5092667;28;20036;-76
2021/11/16 12:19:38;;;;;;;37.28;18.63;;;;;;;;;;5092909;28;20020;-76
2021/11/16 12:22:12;;;;;;;37.72;18.00;;;;;;;;;;5053309;28;20378;-76
2021/11/16 12:24:37;;;;;;;35.38;19.73;;;;;;;;;;5057314;28;20109;-76
2021/11/16 12:27:08;;;;;;;38.83;19.13;;;;;;;;;;5090151;28;20036;-76
2021/11/16 12:29:45;;;;;;;33.63;18.67;;;;;;;;;;5093571;28;20034;-78
2021/11/16 12:32:30;;;;;;;38.92;19.85;;;;;;;;;;5093117;28;20052;-75
2021/11/16 12:35:05;;;;;;;33.88;18.08;;;;;;;;;;5092212;28;20020;-76
2021/11/16 12:37:42;;;;;;;37.75;19.33;;;;;;;;;;5072583;28;20458;-76
2021/11/16 12:40:20;;;;;;;36.40;18.58;;;;;;;;;;5072393;28;20107;-75
2021/11/16 12:43:04;;;;;;;36.25;19.10;;;;;;;;;;5072975;28;20031;-75
2021/11/16 12:45:38;;;;;;;33.88;17.85;;;;;;;;;;5071536;28;20109;-75
2021/11/16 12:48:05;;;;;;;35.97;19.38;;;;;;;;;;5072485;28;20465;-76
2021/11/16 12:50:31;;;;;;;35.78;19.33;;;;;;;;;;5073453;28;20035;-75
2021/11/16 12:52:58;;;;;;;35.85;19.48;;;;;;;;;;5072102;28;20500;-76
2021/11/16 12:55:25;;;;;;;39.50;20.17;;;;;;;;;;5071508;28;20033;-76
2021/11/16 12:57:53;;;;;;;39.40;20.58;;;;;;;;;;5085997;28;20055;-77
2021/11/16 13:00:31;;;;;;;38.17;19.63;;;;;;;;;;5076445;28;20038;-77
2021/11/16 13:02:57;;;;;;;41.10;20.33;;;;;;;;;;5088676;28;20157;-76
2021/11/16 13:05:49;;;;;;;39.13;19.40;;;;;;;;;;5083534;28;20033;-76
2021/11/16 13:08:26;;;;;;;32.78;17.92;;;;;;;;;;5069293;28;20408;-76
2021/11/16 13:10:54;;;;;;;42.55;22.20;;;;;;;;;;5072060;28;20512;-76
2021/11/16 13:13:20;;;;;;;35.88;18.67;;;;;;;;;;5080248;28;20460;-76
2021/11/16 13:15:49;;;;;;;39.53;19.80;;;;;;;;;;5071660;28;20024;-77
2021/11/16 13:18:21;;;;;;;36.67;19.60;;;;;;;;;;5073548;28;20025;-76
2021/11/16 13:20:49;;;;;;;37.33;19.83;;;;;;;;;;5072802;28;20032;-77
2021/11/16 13:23:18;;;;;;;40.83;19.95;;;;;;;;;;5062855;28;20266;-76
2021/11/16 13:25:59;;;;;;;40.47;18.67;;;;;;;;;;5077653;28;20016;-76
2021/11/16 13:31:13;;;;;;;30.73;15.85;;;;;;;;;;5092124;28;20024;-76
2021/11/16 13:33:58;;;;;;;34.05;16.90;;;;;;;;;;5089986;28;20017;-76
2021/11/16 13:36:25;;;;;;;31.85;16.83;;;;;;;;;;5086964;28;20485;-77
2021/11/16 13:39:01;;;;;;;33.25;17.83;;;;;;;;;;5071542;28;20063;-77
2021/11/16 13:41:46;;;;;;;34.88;18.40;;;;;;;;;;5074375;28;20461;-76
2021/11/16 13:44:27;;;;;;;29.48;17.85;;;;;;;;;;5054015;28;20020;-77
2021/11/16 13:47:09;;;;;;;27.98;16.65;;;;;;;;;;5079613;28;20020;-76
2021/11/16 13:49:40;;;;;;;29.93;15.73;;;;;;;;;;5086666;28;20020;-77
2021/11/16 13:52:09;;;;;;;35.67;17.33;;;;;;;;;;5073540;28;20349;-76
2021/11/16 13:54:35;;;;;;;33.05;16.50;;;;;;;;;;5086461;28;20413;-76
2021/11/16 13:57:07;;;;;;;31.92;16.38;;;;;;;;;;5055052;28;20048;-76
2021/11/16 13:59:33;;;;;;;30.17;15.68;;;;;;;;;;5093961;28;20019;-76
2021/11/16 14:02:00;;;;;;;27.73;16.55;;;;;;;;;;5093468;28;20024;-77
2021/11/16 14:04:27;;;;;;;33.80;16.63;;;;;;;;;;5085764;28;20365;-77
2021/11/16 14:06:53;;;;;;;32.72;16.83;;;;;;;;;;5095831;28;20028;-77
2021/11/16 14:09:23;;;;;;;28.67;17.23;;;;;;;;;;5096461;28;20081;-77
2021/11/16 14:11:50;;;;;;;29.60;17.15;;;;;;;;;;5088196;28;20024;-77
2021/11/16 14:14:16;;;;;;;26.75;15.57;;;;;;;;;;5095580;28;20069;-78
2021/11/16 14:16:42;;;;;;;32.72;16.17;;;;;;;;;;5097227;28;20020;-77
2021/11/16 14:19:08;;;;;;;32.55;16.42;;;;;;;;;;5102730;28;20112;-77
2021/11/16 14:21:38;;;;;;;26.73;15.27;;;;;;;;;;5090786;28;20025;-78
2021/11/16 14:24:04;;;;;;;29.23;15.32;;;;;;;;;;5089424;28;20021;-77
2021/11/16 14:26:31;;;;;;;33.15;17.52;;;;;;;;;;5086220;28;20024;-77
2021/11/16 14:28:58;;;;;;;30.15;16.80;;;;;;;;;;5084015;28;20028;-77
2021/11/16 14:31:25;;;;;;;29.90;16.45;;;;;;;;;;5077670;28;20025;-76
2021/11/16 14:33:56;;;;;;;30.42;16.33;;;;;;;;;;5085734;28;20108;-76
2021/11/16 14:36:42;;;;;;;33.95;17.52;;;;;;;;;;5082008;28;20032;-77
2021/11/16 14:39:09;;;;;;;31.90;17.63;;;;;;;;;;5078344;28;20462;-77
2021/11/16 14:41:43;;;;;;;30.67;16.88;;;;;;;;;;5065023;28;20382;-77
2021/11/16 14:44:11;;;;;;;27.13;15.60;;;;;;;;;;5085862;28;20020;-76
2021/11/16 14:46:38;;;;;;;33.33;17.67;;;;;;;;;;5081489;28;20072;-77
2021/11/16 14:49:06;;;;;;;32.47;17.70;;;;;;;;;;5090386;28;20099;-77